Time;durP1;ratioP1;P1;durP2;ratioP2;P2;SDS_P1;SDS_P2;PMS_P1;PMS_P2;Temp;Humidity;BMP_temperature;BMP_pressure;BME280_temperature;BME280_humidity;BME280_pressure;Samples;Min_cycle;Max_cycle;Signal;HPM_P1;HPM_P2
2023/12/19 00:00:58;;;;;;;10.17;9.87;;;;;;;-141.02;100.00;39666.00;5116290;28;20189;-69
2023/12/19 00:03:24;;;;;;;10.30;10.00;;;;;;;-141.02;100.00;39646.81;5116560;28;20196;-68
2023/12/19 00:05:52;;;;;;;10.47;10.17;;;;;;;-141.02;100.00;39738.88;5116494;28;20192;-68
2023/12/19 00:08:19;;;;;;;9.60;9.30;;;;;;;-141.02;100.00;39756.16;5116424;28;20193;-68
2023/12/19 00:10:46;;;;;;;9.03;8.83;;;;;;;-141.02;100.00;39738.88;5116441;28;20201;-68
2023/12/19 00:13:15;;;;;;;9.00;8.80;;;;;;;-141.02;100.00;39727.38;5116312;28;20197;-68
2023/12/19 00:15:41;;;;;;;9.57;9.27;;;;;;;-141.02;100.00;39700.53;5116121;28;20198;-68
2023/12/19 00:18:09;;;;;;;9.60;9.30;;;;;;;-141.02;100.00;39700.53;5116563;28;20208;-67
2023/12/19 00:20:36;;;;;;;10.10;9.80;;;;;;;-141.02;100.00;39692.84;5116269;28;20250;-67
2023/12/19 00:23:04;;;;;;;9.47;9.17;;;;;;;-141.02;100.00;39692.84;5116178;28;20197;-67
2023/12/19 00:25:31;;;;;;;9.80;9.50;;;;;;;-141.02;100.00;39650.66;5116275;28;20229;-68
2023/12/19 00:27:59;;;;;;;9.63;9.33;;;;;;;-141.02;100.00;39654.50;5115901;28;20197;-67
2023/12/19 00:30:27;;;;;;;10.60;10.30;;;;;;;-141.02;100.00;39681.34;5116113;28;20201;-67
2023/12/19 00:32:54;;;;;;;10.13;9.83;;;;;;;-141.02;100.00;39750.41;5116191;28;20193;-67
2023/12/19 00:35:21;;;;;;;10.63;10.33;;;;;;;-141.02;100.00;39769.56;5115680;28;20205;-67
2023/12/19 00:37:48;;;;;;;10.57;10.27;;;;;;;-141.02;100.00;39865.47;5115525;28;20197;-67
2023/12/19 00:40:15;;;;;;;10.70;10.40;;;;;;;-141.02;100.00;39907.69;5115886;28;20219;-67
2023/12/19 00:42:43;;;;;;;10.53;10.23;;;;;;;-141.02;100.00;39961.38;5115504;28;20203;-67
2023/12/19 00:45:11;;;;;;;10.83;10.53;;;;;;;-141.02;100.00;40032.34;5115648;28;20661;-67
2023/12/19 00:47:39;;;;;;;10.97;10.67;;;;;;;-141.02;100.00;40072.63;5115444;28;20197;-67
2023/12/19 00:50:08;;;;;;;11.97;11.57;;;;;;;-141.02;100.00;40045.78;5115400;28;20682;-67
2023/12/19 00:52:35;;;;;;;11.77;11.40;;;;;;;-141.02;100.00;40041.94;5115403;28;20196;-67
2023/12/19 00:55:02;;;;;;;11.50;11.20;;;;;;;-141.02;100.00;40038.09;5115241;28;20201;-67
2023/12/19 00:57:29;;;;;;;12.20;11.80;;;;;;;-141.02;100.00;40072.63;5114436;28;20316;-67
2023/12/19 00:59:56;;;;;;;12.00;11.60;;;;;;;-141.02;100.00;40145.53;5113990;28;20204;-66
2023/12/19 01:02:24;;;;;;;11.37;11.07;;;;;;;-141.02;100.00;40195.41;5114431;28;20200;-67
2023/12/19 01:04:52;;;;;;;11.00;10.70;;;;;;;-141.02;100.00;40362.28;5114135;28;20229;-66
2023/12/19 01:07:19;;;;;;;11.07;10.77;;;;;;;-141.02;100.00;40448.63;5113818;28;20194;-66
2023/12/19 01:09:46;;;;;;;10.53;10.23;;;;;;;-141.02;100.00;40613.59;5113911;28;20189;-66
2023/12/19 01:12:13;;;;;;;10.53;10.23;;;;;;;-141.02;100.00;40826.56;5114067;28;20197;-66
2023/12/19 01:14:40;;;;;;;11.37;11.07;;;;;;;-141.02;100.00;40955.09;5114088;28;20250;-66
2023/12/19 01:17:07;;;;;;;11.63;11.33;;;;;;;-141.02;100.00;41005.00;5113789;28;20571;-66
2023/12/19 01:19:34;;;;;;;10.40;10.10;;;;;;;-141.02;100.00;41223.72;5114011;28;20296;-66
2023/12/19 01:22:03;;;;;;;10.90;10.60;;;;;;;-141.02;100.00;41417.53;5114213;28;20197;-67
2023/12/19 01:24:30;;;;;;;10.83;10.53;;;;;;;-141.02;100.00;41584.50;5113542;28;20698;-66
2023/12/19 01:26:57;;;;;;;11.03;10.73;;;;;;;-141.02;100.00;41668.94;5113915;28;20189;-66
2023/12/19 01:29:24;;;;;;;10.50;10.20;;;;;;;-141.02;100.00;41722.66;5113541;28;20656;-66
2023/12/19 01:31:51;;;;;;;10.13;9.83;;;;;;;-141.02;100.00;41649.75;5113460;28;20204;-66
2023/12/19 01:34:18;;;;;;;10.20;9.90;;;;;;;-141.02;100.00;41807.09;5114330;28;20201;-66
2023/12/19 01:36:45;;;;;;;10.13;9.83;;;;;;;-141.02;100.00;42014.38;5113671;28;20200;-66
2023/12/19 01:39:14;;;;;;;10.30;10.00;;;;;;;-141.02;100.00;42167.94;5113656;28;20572;-66
2023/12/19 01:41:40;;;;;;;10.23;9.93;;;;;;;-141.02;100.00;42248.53;5113611;28;20219;-66
2023/12/19 01:44:17;;;;;;;10.10;9.80;;;;;;;-141.02;100.00;42457.75;5114106;28;20201;-66
2023/12/19 01:46:44;;;;;;;10.87;10.57;;;;;;;-141.02;100.00;42582.53;5113599;28;20185;-66
2023/12/19 01:49:11;;;;;;;10.73;10.43;;;;;;;-141.02;100.00;42812.91;5113240;28;20201;-66
2023/12/19 01:51:38;;;;;;;10.43;10.13;;;;;;;-141.02;100.00;43148.88;5113538;28;20280;-66
2023/12/19 01:54:07;;;;;;;10.03;9.73;;;;;;;-141.02;100.00;43369.66;5113623;28;20193;-66
2023/12/19 01:56:36;;;;;;;8.93;8.73;;;;;;;-141.02;100.00;43661.53;5039328;28;2103777;-66
2023/12/19 01:59:06;;;;;;;8.97;8.77;;;;;;;-141.02;100.00;43987.97;5113968;28;20193;-66
2023/12/19 02:01:35;;;;;;;9.07;8.87;;;;;;;-141.02;100.00;44026.38;5114011;28;20193;-66
2023/12/19 02:04:02;;;;;;;9.20;9.00;;;;;;;-141.02;100.00;43845.88;5114177;28;20683;-66
2023/12/19 02:06:32;;;;;;;9.50;9.20;;;;;;;-141.02;100.00;43325.50;5113895;28;20194;-66
2023/12/19 02:08:59;;;;;;;9.33;9.07;;;;;;;-141.02;100.00;43150.78;5114164;28;20189;-66
2023/12/19 02:11:26;;;;;;;9.90;9.60;;;;;;;-141.02;100.00;43319.75;5114123;28;20189;-66
2023/12/19 02:13:56;;;;;;;9.60;9.30;;;;;;;-141.02;100.00;43609.69;5113034;28;20199;-66
2023/12/19 02:16:25;;;;;;;9.83;9.53;;;;;;;-141.02;100.00;43838.19;5113746;28;20204;-65
2023/12/19 02:19:01;;;;;;;9.43;9.13;;;;;;;-141.02;100.00;43987.97;5113719;28;20667;-66
2023/12/19 02:21:28;;;;;;;9.80;9.50;;;;;;;-141.02;100.00;44502.69;5113874;28;20199;-66
2023/12/19 02:23:56;;;;;;;9.90;9.60;;;;;;;-141.02;100.00;45194.22;5113811;28;20193;-66
2023/12/19 02:26:24;;;;;;;8.73;8.53;;;;;;;-141.02;100.00;45526.56;5113703;28;20231;-66
2023/12/19 02:28:52;;;;;;;9.40;9.10;;;;;;;-141.02;100.00;45221.09;5113751;28;20204;-66
2023/12/19 02:31:19;;;;;;;9.00;8.80;;;;;;;-141.02;100.00;45146.19;5113793;28;20193;-66
2023/12/19 02:33:47;;;;;;;9.93;9.63;;;;;;;-141.02;100.00;45224.94;5113283;28;20565;-66
2023/12/19 02:36:16;;;;;;;7.43;7.23;;;;;;;-141.02;100.00;45540.03;5113355;28;20667;-65
2023/12/19 02:38:43;;;;;;;8.90;8.70;;;;;;;-141.02;100.00;45797.50;5113509;28;20194;-65
2023/12/19 02:41:11;;;;;;;6.70;6.50;;;;;;;-141.02;100.00;46005.00;5113586;28;20188;-66
2023/12/19 02:43:38;;;;;;;9.60;9.30;;;;;;;-141.02;100.00;46322.09;5113215;28;20685;-66
2023/12/19 02:46:06;;;;;;;7.47;7.27;;;;;;;-141.02;100.00;46366.28;5113437;27;20706;-65
2023/12/19 02:48:34;;;;;;;7.67;7.47;;;;;;;-141.02;100.00;46447.00;5113134;28;20193;-65
2023/12/19 02:51:01;;;;;;;8.17;7.97;;;;;;;-141.02;100.00;46331.69;5113324;28;20582;-66
2023/12/19 02:53:29;;;;;;;7.40;7.20;;;;;;;-141.02;100.00;46308.63;5113336;28;20221;-65
2023/12/19 02:55:56;;;;;;;7.70;7.50;;;;;;;-141.02;100.00;46689.16;5112754;28;20585;-66
2023/12/19 02:58:24;;;;;;;7.87;7.67;;;;;;;-141.02;100.00;47235.03;5113048;28;20185;-65
2023/12/19 03:00:51;;;;;;;8.27;8.07;;;;;;;-141.02;100.00;47400.34;5112961;28;20197;-65
2023/12/19 03:03:18;;;;;;;8.03;7.83;;;;;;;-141.02;100.00;47423.41;5113206;28;20197;-65
2023/12/19 03:05:45;;;;;;;7.40;7.20;;;;;;;-141.02;100.00;47409.97;5113040;28;20229;-66
2023/12/19 03:08:12;;;;;;;7.27;7.07;;;;;;;-141.02;100.00;47586.81;5112737;28;20197;-66
2023/12/19 03:10:39;;;;;;;6.90;6.70;;;;;;;-141.02;100.00;47379.22;5112806;28;20734;-66
2023/12/19 03:13:06;;;;;;;6.80;6.60;;;;;;;-141.02;100.00;47123.53;5113025;28;20193;-66
2023/12/19 03:15:34;;;;;;;7.17;6.97;;;;;;;-141.02;100.00;46568.06;5112646;28;20705;-67
2023/12/19 03:18:02;;;;;;;7.40;7.20;;;;;;;-141.02;100.00;46108.78;5112638;27;20193;-65
2023/12/19 03:20:29;;;;;;;7.53;7.33;;;;;;;-141.02;100.00;45897.41;5112495;28;20609;-66
2023/12/19 03:22:56;;;;;;;7.27;7.07;;;;;;;-141.02;100.00;45839.75;5112613;28;20678;-65
2023/12/19 03:25:23;;;;;;;7.20;7.00;;;;;;;-141.02;100.00;45851.28;5112523;28;20221;-66
2023/12/19 03:27:50;;;;;;;8.03;7.83;;;;;;;-141.02;100.00;45463.19;5112854;28;20197;-65
2023/12/19 03:30:17;;;;;;;8.33;8.13;;;;;;;-141.02;100.00;45319.09;5112801;28;20232;-66
2023/12/19 03:32:45;;;;;;;7.93;7.73;;;;;;;-141.02;100.00;45305.63;5112415;28;20732;-65
2023/12/19 03:35:12;;;;;;;6.93;6.73;;;;;;;-141.02;100.00;45246.09;5112426;28;20292;-65
2023/12/19 03:37:39;;;;;;;8.10;7.90;;;;;;;-141.02;100.00;45417.06;5112334;28;20200;-65
2023/12/19 03:40:09;;;;;;;8.10;7.90;;;;;;;-141.02;100.00;45582.28;5112372;28;20195;-65
2023/12/19 03:42:36;;;;;;;7.07;6.87;;;;;;;-141.02;100.00;45593.81;5112338;28;20284;-64
2023/12/19 03:45:04;;;;;;;7.50;7.30;;;;;;;-141.02;100.00;45374.81;5112213;28;20236;-65
2023/12/19 03:47:31;;;;;;;8.67;8.47;;;;;;;-141.02;100.00;45478.53;5112362;28;20626;-65
2023/12/19 03:49:59;;;;;;;8.40;8.20;;;;;;;-141.02;100.00;45743.69;5112282;28;20190;-65
2023/12/19 03:52:26;;;;;;;7.80;7.60;;;;;;;-141.02;100.00;45889.72;5112674;28;20193;-65
2023/12/19 03:54:53;;;;;;;8.10;7.90;;;;;;;-141.02;100.00;45501.59;5112385;28;20205;-65
2023/12/19 03:57:20;;;;;;;8.30;8.10;;;;;;;-141.02;100.00;45251.84;5112180;28;20316;-65
2023/12/19 03:59:47;;;;;;;8.33;8.13;;;;;;;-141.02;100.00;44894.53;5112257;28;20212;-65
2023/12/19 04:02:14;;;;;;;8.30;8.10;;;;;;;-141.02;100.00;44823.47;5112167;28;20291;-64
2023/12/19 04:04:41;;;;;;;8.73;8.53;;;;;;;-141.02;100.00;44606.41;5112475;28;20280;-64
2023/12/19 04:07:09;;;;;;;7.60;7.40;;;;;;;-141.02;100.00;44253.00;5112643;28;20193;-64
2023/12/19 04:09:36;;;;;;;7.90;7.70;;;;;;;-141.02;100.00;43926.53;5112181;28;20193;-64
2023/12/19 04:12:04;;;;;;;7.50;7.30;;;;;;;-141.02;100.00;44064.81;5112063;28;20207;-64
2023/12/19 04:14:31;;;;;;;7.97;7.77;;;;;;;-141.02;100.00;44120.50;5112088;28;20573;-64
2023/12/19 04:16:58;;;;;;;7.80;7.60;;;;;;;-141.02;100.00;43684.56;5112379;28;20193;-64
2023/12/19 04:19:25;;;;;;;7.10;6.90;;;;;;;-141.02;100.00;43600.09;5112073;28;20203;-64
2023/12/19 04:21:52;;;;;;;7.70;7.50;;;;;;;-141.02;100.00;43621.22;5112312;28;20200;-64
2023/12/19 04:24:20;;;;;;;6.73;6.53;;;;;;;-141.02;100.00;43715.28;5111973;28;20193;-65
2023/12/19 04:26:48;;;;;;;7.30;7.10;;;;;;;-141.02;100.00;43698.00;5111937;28;20260;-65
2023/12/19 04:29:15;;;;;;;7.60;7.40;;;;;;;-141.02;100.00;43788.28;5111977;28;20701;-65
2023/12/19 04:31:42;;;;;;;7.60;7.40;;;;;;;-141.02;100.00;43473.34;5112017;28;20869;-64
2023/12/19 04:34:09;;;;;;;7.23;7.03;;;;;;;-141.02;100.00;43279.44;5111917;28;20288;-64
2023/12/19 04:36:36;;;;;;;7.83;7.63;;;;;;;-141.02;100.00;43450.31;5112242;28;20193;-64
2023/12/19 04:39:04;;;;;;;6.60;6.40;;;;;;;-141.02;100.00;43500.25;5116474;28;20258;-65
2023/12/19 04:41:33;;;;;;;7.90;7.70;;;;;;;-141.02;100.00;43538.63;5115707;28;20197;-65
2023/12/19 04:44:00;;;;;;;7.90;7.70;;;;;;;-141.02;100.00;43431.13;5115595;28;20196;-65
2023/12/19 04:46:27;;;;;;;7.27;7.07;;;;;;;-141.02;100.00;43187.28;5115516;28;20235;-65
2023/12/19 04:48:55;;;;;;;7.70;7.50;;;;;;;-141.02;100.00;43181.50;5115718;28;20193;-64
2023/12/19 04:51:23;;;;;;;8.77;8.57;;;;;;;-141.02;100.00;43045.19;5115469;28;20200;-64
2023/12/19 04:53:50;;;;;;;8.03;7.83;;;;;;;-141.02;100.00;43006.81;5115681;28;20193;-64
2023/12/19 04:56:17;;;;;;;9.30;9.10;;;;;;;-141.02;100.00;43296.72;5115278;28;20235;-64
2023/12/19 04:58:47;;;;;;;8.20;8.00;;;;;;;-141.02;100.00;43269.81;5115694;28;20204;-65
2023/12/19 05:01:14;;;;;;;8.80;8.60;;;;;;;-141.02;100.00;43632.72;5115870;28;20225;-65
2023/12/19 05:03:41;;;;;;;8.50;8.30;;;;;;;-141.02;100.00;43634.66;5115178;28;20662;-65
2023/12/19 05:06:08;;;;;;;8.77;8.57;;;;;;;-141.02;100.00;43519.44;5115401;28;20225;-65
2023/12/19 05:08:36;;;;;;;9.00;8.80;;;;;;;-141.02;100.00;43682.66;5115463;28;20276;-65
2023/12/19 05:11:03;;;;;;;9.00;8.80;;;;;;;-141.02;100.00;43934.22;5115283;28;20347;-64
2023/12/19 05:13:29;;;;;;;8.93;8.73;;;;;;;-141.02;100.00;44543.03;5115336;28;20276;-65
2023/12/19 05:15:58;;;;;;;7.90;7.70;;;;;;;-141.02;100.00;44994.44;5115337;28;20189;-64
2023/12/19 05:18:25;;;;;;;10.30;10.00;;;;;;;-141.02;100.00;44915.66;5114856;28;20284;-64
2023/12/19 05:20:52;;;;;;;9.60;9.30;;;;;;;-141.02;100.00;45136.59;5114840;28;20193;-65
2023/12/19 05:23:18;;;;;;;8.53;8.33;;;;;;;-141.02;100.00;45061.66;5115051;28;20200;-65
2023/12/19 05:25:46;;;;;;;7.87;7.67;;;;;;;-141.02;100.00;45234.56;5115021;28;20229;-64
2023/12/19 05:28:12;;;;;;;9.10;8.90;;;;;;;-141.02;100.00;45297.94;5115037;28;20194;-64
2023/12/19 05:30:42;;;;;;;9.00;8.80;;;;;;;-141.02;100.00;45173.09;5114976;28;20271;-65
2023/12/19 05:33:10;;;;;;;8.97;8.77;;;;;;;-141.02;100.00;45105.84;5114610;28;20282;-64
2023/12/19 05:35:37;;;;;;;9.43;9.20;;;;;;;-141.02;100.00;45167.31;5114482;28;20197;-65
2023/12/19 05:38:04;;;;;;;8.33;8.13;;;;;;;-141.02;100.00;45732.16;5114528;28;20197;-65
2023/12/19 05:40:32;;;;;;;8.50;8.30;;;;;;;-141.02;100.00;46958.25;5114790;28;20196;-65
2023/12/19 05:42:59;;;;;;;8.10;7.90;;;;;;;-141.02;100.00;47707.94;5114386;28;20578;-65
2023/12/19 05:45:26;;;;;;;8.00;7.80;;;;;;;-141.02;100.00;48380.91;5114303;28;20626;-64
2023/12/19 05:47:53;;;;;;;8.00;7.80;;;;;;;-141.02;100.00;48946.28;5114482;28;20193;-65
2023/12/19 05:50:21;;;;;;;8.50;8.30;;;;;;;-141.02;100.00;49423.28;5113754;28;20224;-65
2023/12/19 05:52:48;;;;;;;8.40;8.20;;;;;;;-141.02;100.00;50065.78;5115274;28;20203;-65
2023/12/19 05:55:15;;;;;;;8.30;8.10;;;;;;;-141.02;100.00;49908.03;5114730;28;20193;-65
2023/12/19 05:57:42;;;;;;;8.80;8.60;;;;;;;-141.02;100.00;50662.22;5114258;28;20326;-65
2023/12/19 06:00:09;;;;;;;9.60;9.30;;;;;;;-141.02;100.00;51081.75;5114386;28;20297;-65
2023/12/19 06:02:36;;;;;;;9.70;9.40;;;;;;;-141.02;100.00;51940.16;5114366;28;20190;-65
2023/12/19 06:05:07;;;;;;;9.37;9.17;;;;;;;-141.02;100.00;52440.66;5114162;28;20578;-65
2023/12/19 06:07:37;;;;;;;9.73;9.43;;;;;;;-141.02;100.00;53453.50;5113950;28;20703;-65
2023/12/19 06:10:04;;;;;;;7.47;7.27;;;;;;;-141.02;100.00;54196.94;5114163;28;20325;-65
2023/12/19 06:12:32;;;;;;;6.87;6.67;;;;;;;-141.02;100.00;55167.88;5114118;28;20679;-65
2023/12/19 06:14:59;;;;;;;8.23;8.03;;;;;;;-141.02;100.00;55692.00;5114102;28;20197;-65
2023/12/19 06:17:26;;;;;;;7.20;7.00;;;;;;;-141.02;100.00;57018.09;5114273;28;20203;-65
2023/12/19 06:19:53;;;;;;;6.67;6.47;;;;;;;-141.02;100.00;58487.41;5114910;28;20199;-65
2023/12/19 06:22:20;;;;;;;9.00;8.70;;;;;;;-141.02;100.00;58487.41;5113926;28;20197;-65
2023/12/19 06:24:50;;;;;;;8.90;8.70;;;;;;;-141.02;100.00;58981.19;5113932;28;20203;-65
2023/12/19 06:27:17;;;;;;;8.70;8.50;;;;;;;-141.02;100.00;59721.97;5113896;27;20218;-65
2023/12/19 06:29:44;;;;;;;8.80;8.60;;;;;;;-141.02;100.00;60462.94;5113463;28;20578;-65
2023/12/19 06:32:11;;;;;;;7.33;7.13;;;;;;;-141.02;100.00;61698.22;5113869;28;20189;-65
2023/12/19 06:34:38;;;;;;;7.70;7.50;;;;;;;-141.02;100.00;63428.38;5113716;28;20201;-65
2023/12/19 06:37:05;;;;;;;7.63;7.43;;;;;;;-141.02;100.00;64170.13;5113700;28;20199;-65
2023/12/19 06:39:32;;;;;;;7.10;6.90;;;;;;;-141.02;100.00;64417.41;5113637;28;20322;-66
2023/12/19 06:42:00;;;;;;;7.90;7.70;;;;;;;-141.02;100.00;64664.72;5113609;28;20280;-65
2023/12/19 06:44:27;;;;;;;7.30;7.10;;;;;;;-141.02;100.00;64912.06;5113360;28;20193;-65
2023/12/19 06:46:54;;;;;;;7.60;7.40;;;;;;;-141.02;100.00;64417.41;5113371;28;20224;-65
2023/12/19 06:49:21;;;;;;;6.80;6.60;;;;;;;-141.02;100.00;64417.41;5113157;28;20284;-66
2023/12/19 06:51:48;;;;;;;6.70;6.50;;;;;;;-141.02;100.00;64912.06;5113311;28;20764;-66
2023/12/19 06:54:15;;;;;;;6.77;6.57;;;;;;;-141.02;100.00;65159.41;5113362;28;20228;-66
2023/12/19 06:56:42;;;;;;;6.77;6.57;;;;;;;-141.02;100.00;65406.75;5113021;28;20312;-66
2023/12/19 06:59:10;;;;;;;7.63;7.43;;;;;;;-141.02;100.00;64912.06;5113273;28;20280;-66
2023/12/19 07:01:37;;;;;;;8.20;8.00;;;;;;;-141.02;100.00;64664.72;5112899;28;20224;-66
2023/12/19 07:04:04;;;;;;;7.20;7.00;;;;;;;-141.02;100.00;63922.84;5113222;28;20197;-66
2023/12/19 07:06:31;;;;;;;7.53;7.33;;;;;;;-141.02;100.00;63428.38;5113038;28;20220;-66
2023/12/19 07:08:59;;;;;;;8.60;8.40;;;;;;;-141.02;100.00;62192.44;5112803;28;20240;-67
2023/12/19 07:11:27;;;;;;;7.27;7.07;;;;;;;-141.02;100.00;60215.94;5112816;28;20280;-66
2023/12/19 07:13:54;;;;;;;6.93;6.73;;;;;;;-141.02;100.00;57324.63;5113088;28;20196;-67
2023/12/19 07:16:22;;;;;;;7.70;7.50;;;;;;;-141.02;100.00;55560.97;5113234;28;20193;-68
2023/12/19 07:18:49;;;;;;;8.47;8.27;;;;;;;-141.02;100.00;54285.53;5112967;28;20193;-68
2023/12/19 07:21:20;;;;;;;7.40;7.20;;;;;;;-141.02;100.00;51932.44;5112628;28;20197;-68
2023/12/19 07:23:48;;;;;;;7.53;7.33;;;;;;;-141.02;100.00;50108.09;5112668;28;20660;-67
2023/12/19 07:26:22;;;;;;;7.90;7.70;;;;;;;-141.02;100.00;48744.34;5112856;28;20221;-68
2023/12/19 07:28:50;;;;;;;11.77;11.23;;;;;;;-141.02;100.00;48607.81;5112924;28;20198;-67
2023/12/19 07:31:25;;;;;;;7.60;7.40;;;;;;;-141.02;100.00;47746.41;5112530;28;20280;-66
2023/12/19 07:33:56;;;;;;;7.80;7.60;;;;;;;-141.02;100.00;47094.72;5112618;28;20710;-67
2023/12/19 07:36:24;;;;;;;11.73;11.33;;;;;;;-141.02;100.00;45922.38;5112874;28;20197;-66
2023/12/19 07:38:51;;;;;;;10.10;9.80;;;;;;;-141.02;100.00;46268.28;5112392;28;20663;-66
2023/12/19 07:41:18;;;;;;;10.93;10.53;;;;;;;-141.02;100.00;45046.28;5112757;28;20276;-66
2023/12/19 07:43:45;;;;;;;11.00;10.60;;;;;;;-141.02;100.00;44767.75;5112818;28;20201;-66
2023/12/19 07:46:11;;;;;;;11.20;10.80;;;;;;;-141.02;100.00;44216.53;5112225;28;20223;-66
2023/12/19 07:48:40;;;;;;;11.23;10.83;;;;;;;-141.02;100.00;44975.22;5112576;28;20220;-67
2023/12/19 07:51:07;;;;;;;11.00;10.70;;;;;;;-141.02;100.00;45493.91;5112874;28;20606;-66
2023/12/19 07:53:35;;;;;;;10.50;10.20;;;;;;;-141.02;100.00;45785.97;5112632;28;20224;-67
2023/12/19 07:56:04;;;;;;;10.97;10.67;;;;;;;-141.02;100.00;45639.94;5112303;28;20315;-66
2023/12/19 07:58:31;;;;;;;11.20;10.80;;;;;;;-141.02;100.00;46028.06;5112217;28;20582;-66
2023/12/19 08:00:58;;;;;;;12.00;11.60;;;;;;;-141.02;100.00;46066.50;5112149;28;20189;-67
2023/12/19 08:03:25;;;;;;;12.70;12.30;;;;;;;-141.02;100.00;46506.56;5113158;28;20276;-68
2023/12/19 08:05:55;;;;;;;12.80;12.40;;;;;;;-141.02;100.00;46008.84;5112153;28;20711;-69
2023/12/19 08:08:22;;;;;;;13.80;13.30;;;;;;;-141.02;100.00;45785.97;5112488;28;20189;-69
2023/12/19 08:10:49;;;;;;;15.20;14.60;;;;;;;-141.02;100.00;45630.34;5112386;28;20281;-70
2023/12/19 08:13:17;;;;;;;15.90;15.20;;;;;;;-141.02;100.00;45728.31;5114932;28;20231;-69
2023/12/19 08:15:44;;;;;;;16.27;15.57;;;;;;;-141.02;100.00;45593.81;5116170;28;20778;-69
2023/12/19 08:18:11;;;;;;;11.70;11.30;;;;;;;-141.02;100.00;44740.88;5116019;28;20233;-66
2023/12/19 08:20:38;;;;;;;10.97;10.57;;;;;;;-141.02;100.00;44356.72;5116025;28;20390;-69
2023/12/19 08:23:07;;;;;;;12.30;11.90;;;;;;;-141.02;100.00;44433.53;5115965;28;20671;-71
2023/12/19 08:25:34;;;;;;;12.50;12.10;;;;;;;-141.02;100.00;44260.69;5115895;28;20585;-70
2023/12/19 08:28:01;;;;;;;12.63;12.23;;;;;;;-141.02;100.00;43703.78;5116111;28;20228;-70
2023/12/19 08:30:28;;;;;;;12.50;12.10;;;;;;;-141.02;100.00;43534.78;5116134;28;20194;-71
2023/12/19 08:32:56;;;;;;;12.50;12.10;;;;;;;-141.02;100.00;43626.97;5115782;28;20656;-73
2023/12/19 08:35:23;;;;;;;14.03;13.53;;;;;;;-141.02;100.00;43214.16;5116128;28;20285;-72
2023/12/19 08:37:50;;;;;;;13.50;13.10;;;;;;;-141.02;100.00;43323.59;5115756;28;20350;-70
2023/12/19 08:40:19;;;;;;;13.17;12.77;;;;;;;-141.02;100.00;43365.81;5115682;28;20599;-73
2023/12/19 08:42:48;;;;;;;13.70;13.30;;;;;;;-141.02;100.00;43527.13;5115570;28;20644;-69
2023/12/19 08:45:16;;;;;;;13.20;12.80;;;;;;;-141.02;100.00;43567.44;5115921;28;20209;-70
2023/12/19 08:47:44;;;;;;;13.07;12.67;;;;;;;-141.02;100.00;43615.44;5116252;28;20224;-72
2023/12/19 08:50:12;;;;;;;17.47;16.87;;;;;;;-141.02;100.00;43327.44;5115789;28;20197;-69
2023/12/19 08:52:41;;;;;;;17.90;17.20;;;;;;;-141.02;100.00;43434.94;5115721;28;20193;-70
2023/12/19 08:55:08;;;;;;;18.10;17.40;;;;;;;-141.02;100.00;43473.34;5115631;28;20193;-70
2023/12/19 08:57:40;;;;;;;21.20;20.20;;;;;;;-141.02;100.00;43365.81;5115257;28;20229;-72
2023/12/19 09:00:08;;;;;;;20.30;19.50;;;;;;;-141.02;100.00;43857.41;5115555;28;20181;-69
2023/12/19 09:02:35;;;;;;;21.00;20.10;;;;;;;-141.02;100.00;43108.56;5115561;28;20283;-70
2023/12/19 09:05:03;;;;;;;21.60;20.70;;;;;;;-141.02;100.00;43296.72;5115178;28;20730;-71
2023/12/19 09:07:30;;;;;;;22.23;21.33;;;;;;;-141.02;100.00;43880.44;5115065;28;20225;-71
2023/12/19 09:09:57;;;;;;;21.13;20.33;;;;;;;-141.02;100.00;44164.66;5115135;28;20193;-72
2023/12/19 09:12:24;;;;;;;21.13;20.30;;;;;;;-141.02;100.00;44506.53;5115023;28;20232;-71
2023/12/19 09:14:53;;;;;;;21.93;21.03;;;;;;;-141.02;100.00;44637.16;5114974;28;20280;-72
2023/12/19 09:17:20;;;;;;;22.20;21.30;;;;;;;-141.02;100.00;44763.91;5115146;28;20290;-71
2023/12/19 09:19:47;;;;;;;24.10;23.00;;;;;;;-141.02;100.00;44640.97;5113787;28;20204;-71
2023/12/19 09:22:14;;;;;;;27.57;26.17;;;;;;;-141.02;100.00;43968.78;5115110;28;20640;-72
2023/12/19 09:24:41;;;;;;;31.10;29.50;;;;;;;-141.02;100.00;43868.91;5114867;28;20221;-72
2023/12/19 09:27:08;;;;;;;32.47;30.77;;;;;;;-141.02;100.00;43774.81;5115029;28;20311;-72
2023/12/19 09:29:35;;;;;;;32.90;31.20;;;;;;;-141.02;100.00;43799.78;5114986;28;20288;-73
2023/12/19 09:32:05;;;;;;;35.97;34.07;;;;;;;-141.02;100.00;44011.03;5114703;28;20193;-74
2023/12/19 09:34:32;;;;;;;31.17;29.57;;;;;;;-141.02;100.00;43707.63;5114906;28;20220;-74
2023/12/19 09:36:59;;;;;;;32.50;30.80;;;;;;;-141.02;100.00;43991.81;5114882;28;20193;-75
2023/12/19 09:39:25;;;;;;;31.57;29.87;;;;;;;-141.02;100.00;44095.53;5114101;28;20204;-76
2023/12/19 09:41:53;;;;;;;33.47;31.67;;;;;;;-141.02;100.00;43891.97;5114726;28;20199;-77
2023/12/19 09:44:20;;;;;;;33.03;31.23;;;;;;;-141.02;100.00;43696.09;5114714;28;20232;-78
2023/12/19 09:46:50;;;;;;;37.10;34.97;;;;;;;-141.02;100.00;43454.16;5114245;28;20796;-79
2023/12/19 09:49:22;;;;;;;33.30;31.40;;;;;;;-141.02;100.00;43277.50;5114885;28;20205;-78
2023/12/19 09:51:53;;;;;;;33.70;31.90;;;;;;;-141.02;100.00;43321.66;5114232;28;20185;-77
2023/12/19 09:54:21;;;;;;;34.50;32.60;;;;;;;-141.02;100.00;43185.34;5114718;28;20197;-77
2023/12/19 09:56:48;;;;;;;32.43;30.73;;;;;;;-141.02;100.00;43634.66;5113874;28;20233;-76
2023/12/19 09:59:18;;;;;;;28.83;27.23;;;;;;;-141.02;100.00;43772.91;5114080;28;20730;-75
2023/12/19 10:01:46;;;;;;;18.83;17.63;;;;;;;-141.02;100.00;43667.28;5114018;28;20579;-76
2023/12/19 10:04:14;;;;;;;19.00;17.70;;;;;;;-141.02;100.00;43488.72;5114289;28;20280;-76
2023/12/19 10:06:54;;;;;;;28.90;27.20;;;;;;;-141.02;100.00;43615.44;5114274;28;20205;-77
2023/12/19 10:09:21;;;;;;;25.43;23.83;;;;;;;-141.02;100.00;43446.47;5114818;28;20628;-78
2023/12/19 10:12:06;;;;;;;20.30;18.90;;;;;;;-141.02;100.00;43458.00;5114183;28;20280;-77
2023/12/19 10:14:34;;;;;;;25.27;23.67;;;;;;;-141.02;100.00;43408.06;5113926;28;20272;-77
2023/12/19 10:17:04;;;;;;;27.23;25.63;;;;;;;-141.02;100.00;43461.84;5114103;28;20201;-77
2023/12/19 10:19:33;;;;;;;28.93;27.20;;;;;;;-141.02;100.00;43392.72;5114490;28;20200;-76
2023/12/19 10:22:12;;;;;;;35.60;33.60;;;;;;;-141.02;100.00;43607.75;5113993;28;20189;-77
2023/12/19 10:24:39;;;;;;;41.80;39.33;;;;;;;-141.02;100.00;43315.91;5113703;28;20660;-77
2023/12/19 10:27:07;;;;;;;33.27;31.17;;;;;;;-141.02;100.00;43590.47;5113485;28;20227;-77
2023/12/19 10:29:36;;;;;;;36.90;34.63;;;;;;;-141.02;100.00;43555.91;5113464;28;20203;-78
2023/12/19 10:32:14;;;;;;;36.37;34.17;;;;;;;-141.02;100.00;43607.75;5113856;28;20201;-78
2023/12/19 10:34:42;;;;;;;32.00;30.00;;;;;;;-141.02;100.00;43388.88;5113052;28;20203;-78
2023/12/19 10:37:14;;;;;;;34.70;32.60;;;;;;;-141.02;100.00;43540.56;5113371;28;20201;-79
2023/12/19 10:39:42;;;;;;;36.40;34.07;;;;;;;-141.02;100.00;43511.75;5113294;28;20279;-79
2023/12/19 10:42:10;;;;;;;43.57;40.67;;;;;;;-141.02;100.00;43646.16;5114490;28;20189;-78
2023/12/19 10:44:40;;;;;;;33.70;31.30;;;;;;;-141.02;100.00;43469.50;5113128;28;20574;-79
2023/12/19 10:47:08;;;;;;;34.93;32.53;;;;;;;-141.02;100.00;43515.59;5113522;28;20225;-77
2023/12/19 10:49:36;;;;;;;37.57;34.87;;;;;;;-141.02;100.00;43484.88;5113380;28;20189;-79
2023/12/19 10:52:07;;;;;;;29.07;26.87;;;;;;;-141.02;100.00;43269.81;5113459;28;20194;-80
2023/12/19 10:54:37;;;;;;;31.17;28.87;;;;;;;-141.02;100.00;43392.72;5113434;28;20272;-80
2023/12/19 10:57:06;;;;;;;31.30;29.10;;;;;;;-141.02;100.00;43438.78;5112972;28;20307;-80
2023/12/19 10:59:44;;;;;;;37.97;35.27;;;;;;;-141.02;100.00;43394.63;5113315;28;20193;-79
2023/12/19 11:02:21;;;;;;;38.50;35.70;;;;;;;-141.02;100.00;43179.59;5112898;28;20191;-79
2023/12/19 11:04:54;;;;;;;22.87;20.97;;;;;;;-141.02;100.00;43504.06;5113375;28;20189;-81